Time;durP1;ratioP1;P1;durP2;ratioP2;P2;SDS_P1;SDS_P2;PMS_P1;PMS_P2;Temp;Humidity;BMP_temperature;BMP_pressure;BME280_temperature;BME280_humidity;BME280_pressure;Samples;Min_cycle;Max_cycle;Signal;HPM_P1;HPM_P2
2023/08/24 00:01:03;;;;;;;8.43;7.73;;;;;;;22.53;69.00;157160.03;5057511;28;20458;-79
2023/08/24 00:03:29;;;;;;;8.50;7.80;;;;;;;22.52;68.99;157156.13;5059039;28;20461;-79
2023/08/24 00:05:56;;;;;;;8.53;7.70;;;;;;;22.51;68.70;157154.81;5048429;28;20806;-79
2023/08/24 00:08:22;;;;;;;7.73;7.13;;;;;;;22.48;68.80;157145.69;5031409;28;20474;-79
2023/08/24 00:10:49;;;;;;;9.17;8.30;;;;;;;22.43;69.00;157133.91;5042296;28;20548;-80
2023/08/24 00:13:16;;;;;;;8.93;8.17;;;;;;;22.37;69.49;157118.28;5019205;28;20467;-79
2023/08/24 00:15:44;;;;;;;9.37;8.40;;;;;;;22.34;69.64;157110.44;5056888;28;20430;-80
2023/08/24 00:18:10;;;;;;;10.20;8.70;;;;;;;22.38;69.75;157120.84;5064615;28;20456;-79
2023/08/24 00:20:37;;;;;;;8.80;8.10;;;;;;;22.41;69.53;157128.69;5039822;28;20450;-79
2023/08/24 00:23:04;;;;;;;12.00;8.70;;;;;;;22.45;69.71;157139.16;5052210;28;20540;-79
2023/08/24 00:25:31;;;;;;;9.40;8.50;;;;;;;22.50;69.21;157152.22;5045234;28;20638;-79
2023/08/24 00:27:58;;;;;;;11.13;9.07;;;;;;;22.50;69.86;157150.91;5039230;28;20481;-79
2023/08/24 00:30:25;;;;;;;9.00;8.20;;;;;;;22.52;69.59;157157.44;5040108;28;20869;-79
2023/08/24 00:32:53;;;;;;;8.27;7.57;;;;;;;22.55;69.23;157165.28;5006727;28;20534;-79
2023/08/24 00:35:19;;;;;;;9.27;8.47;;;;;;;22.58;69.42;157173.13;5029479;28;20885;-79
2023/08/24 00:37:46;;;;;;;9.07;8.27;;;;;;;22.59;68.85;157175.72;5022104;28;20470;-79
2023/08/24 00:40:12;;;;;;;9.57;8.77;;;;;;;22.59;69.61;157175.72;5008190;28;20448;-79
2023/08/24 00:42:40;;;;;;;9.50;8.60;;;;;;;22.52;71.21;157157.44;5062157;28;20979;-79
2023/08/24 00:45:09;;;;;;;9.83;9.03;;;;;;;22.39;72.56;157123.47;5070079;28;20544;-79
2023/08/24 00:47:35;;;;;;;10.67;9.73;;;;;;;22.37;73.11;157118.28;5024153;28;20471;-79
2023/08/24 00:50:04;;;;;;;10.70;9.70;;;;;;;22.31;73.70;157103.91;5043696;28;20793;-79
2023/08/24 00:52:32;;;;;;;10.37;9.40;;;;;;;22.24;74.25;157084.31;5024144;28;20466;-79
2023/08/24 00:55:00;;;;;;;10.60;9.70;;;;;;;22.20;75.33;157073.84;5049973;28;20467;-79
2023/08/24 00:57:27;;;;;;;10.23;9.33;;;;;;;22.14;75.82;157058.16;5044601;28;20549;-79
2023/08/24 00:59:53;;;;;;;10.67;9.67;;;;;;;22.09;75.41;157046.41;5045666;28;20966;-79
2023/08/24 01:02:21;;;;;;;10.63;9.63;;;;;;;22.05;75.30;157034.69;5012168;28;20490;-79
2023/08/24 01:04:48;;;;;;;11.57;10.47;;;;;;;22.00;75.76;157021.63;5055042;28;20454;-79
2023/08/24 01:07:16;;;;;;;10.20;9.20;;;;;;;21.98;75.99;157016.38;5043657;28;20472;-80
2023/08/24 01:09:43;;;;;;;11.00;9.80;;;;;;;21.96;76.87;157011.16;5062868;28;20450;-79
2023/08/24 01:12:20;;;;;;;12.27;10.63;;;;;;;21.94;77.28;157007.25;5063113;28;20871;-79
2023/08/24 01:14:51;;;;;;;11.73;10.47;;;;;;;21.91;77.28;156999.41;5052646;28;20430;-79
2023/08/24 01:17:23;;;;;;;11.33;10.33;;;;;;;21.87;77.49;156988.94;5009361;28;20495;-79
2023/08/24 01:19:50;;;;;;;11.03;10.03;;;;;;;21.84;76.98;156982.38;5054871;28;20447;-79
2023/08/24 01:22:26;;;;;;;13.30;10.40;;;;;;;21.87;77.41;156987.69;5055436;28;20463;-79
2023/08/24 01:24:55;;;;;;;10.10;9.23;;;;;;;21.85;77.32;156985.00;5064172;28;20435;-80
2023/08/24 01:27:23;;;;;;;11.50;10.33;;;;;;;21.86;76.91;156986.38;5013835;28;20811;-79
2023/08/24 01:29:50;;;;;;;10.77;9.67;;;;;;;21.83;77.10;156978.47;5012620;28;20449;-79
2023/08/24 01:32:16;;;;;;;10.40;9.43;;;;;;;21.87;76.89;156987.69;5058474;28;20447;-79
2023/08/24 01:34:43;;;;;;;11.10;10.20;;;;;;;21.89;76.37;156994.19;5027713;28;20466;-79
2023/08/24 01:37:10;;;;;;;9.97;9.17;;;;;;;21.88;76.09;156990.25;5034242;28;20463;-79
2023/08/24 01:39:43;;;;;;;9.90;9.10;;;;;;;21.87;76.12;156988.94;5034979;28;20458;-79
2023/08/24 01:42:12;;;;;;;9.77;8.97;;;;;;;21.89;76.41;156992.88;5038646;28;20604;-80
2023/08/24 01:44:40;;;;;;;10.20;9.30;;;;;;;21.88;76.16;156990.25;5030086;28;20458;-80
2023/08/24 01:47:11;;;;;;;10.73;9.87;;;;;;;21.85;76.56;156983.69;5047133;28;20474;-79
2023/08/24 01:49:38;;;;;;;10.17;8.97;;;;;;;21.82;76.32;156977.16;5042716;28;20969;-79
2023/08/24 01:52:06;;;;;;;10.33;9.30;;;;;;;21.82;76.26;156977.16;5030990;28;20481;-79
2023/08/24 01:54:33;;;;;;;10.23;9.30;;;;;;;21.83;76.23;156979.78;5058103;28;20462;-79
2023/08/24 01:57:00;;;;;;;10.60;9.50;;;;;;;21.82;76.56;156975.84;5060384;28;20474;-79
2023/08/24 01:59:27;;;;;;;10.73;9.73;;;;;;;21.84;76.80;156981.09;5035449;28;20884;-80
2023/08/24 02:01:55;;;;;;;10.10;9.20;;;;;;;21.82;76.89;156977.16;5013907;28;20455;-79
2023/08/24 02:04:22;;;;;;;10.40;9.60;;;;;;;21.78;76.61;156966.75;5062054;28;20443;-79
2023/08/24 02:06:49;;;;;;;11.20;10.10;;;;;;;21.74;76.58;156956.25;5049408;28;20459;-80
2023/08/24 02:09:15;;;;;;;11.10;10.10;;;;;;;21.74;77.11;156954.94;5038345;28;20466;-79
2023/08/24 02:11:42;;;;;;;9.97;9.10;;;;;;;21.71;77.21;156948.44;5040995;28;20494;-79
2023/08/24 02:14:09;;;;;;;10.20;9.30;;;;;;;21.67;77.79;156938.00;5046936;28;20448;-79
2023/08/24 02:16:38;;;;;;;11.57;10.47;;;;;;;21.70;77.64;156945.84;5024076;28;20481;-79
2023/08/24 02:19:05;;;;;;;10.10;9.20;;;;;;;21.72;77.80;156951.06;5068761;28;20461;-79
2023/08/24 02:21:32;;;;;;;10.13;9.20;;;;;;;21.69;77.81;156941.91;5031178;28;20843;-79
2023/08/24 02:23:59;;;;;;;10.23;9.33;;;;;;;21.63;78.25;156927.53;5069399;28;20848;-79
2023/08/24 02:26:26;;;;;;;12.00;10.90;;;;;;;21.61;78.31;156921.00;5063259;28;20516;-79
2023/08/24 02:28:53;;;;;;;9.67;8.67;;;;;;;21.60;78.32;156919.75;5010007;28;20571;-79
2023/08/24 02:31:19;;;;;;;10.13;9.07;;;;;;;21.58;78.43;156913.16;5063130;28;20459;-79
2023/08/24 02:33:46;;;;;;;10.10;9.20;;;;;;;21.56;78.44;156907.97;5061564;28;20463;-79
2023/08/24 02:36:14;;;;;;;11.30;10.30;;;;;;;21.54;78.86;156902.75;5043618;28;20793;-79
2023/08/24 02:38:40;;;;;;;11.33;10.33;;;;;;;21.48;78.84;156887.06;5049301;28;20846;-79
2023/08/24 02:41:10;;;;;;;11.07;10.07;;;;;;;21.46;79.17;156883.19;5065876;28;20450;-79
2023/08/24 02:43:37;;;;;;;11.33;10.13;;;;;;;21.45;79.47;156880.53;5033138;28;20458;-79
2023/08/24 02:46:05;;;;;;;11.40;10.43;;;;;;;21.39;79.65;156863.59;5067866;28;20500;-79
2023/08/24 02:48:32;;;;;;;10.47;9.50;;;;;;;21.32;80.16;156846.63;5060562;28;20998;-79
2023/08/24 02:50:58;;;;;;;12.50;10.80;;;;;;;21.28;80.44;156834.88;5065150;28;20689;-79
2023/08/24 02:53:27;;;;;;;10.90;10.00;;;;;;;21.25;80.62;156828.34;5030914;28;20976;-80
2023/08/24 02:55:54;;;;;;;10.13;9.17;;;;;;;21.28;80.18;156836.19;5062736;28;20521;-79
2023/08/24 02:58:21;;;;;;;11.20;10.20;;;;;;;21.34;79.99;156850.56;5022971;28;20974;-79
2023/08/24 03:00:48;;;;;;;10.63;9.73;;;;;;;21.34;79.37;156851.81;5045016;28;20502;-79
2023/08/24 03:03:15;;;;;;;11.63;9.67;;;;;;;21.42;79.04;156872.72;5045028;28;20464;-80
2023/08/24 03:05:42;;;;;;;11.40;9.40;;;;;;;21.47;78.74;156885.75;5030496;28;22470;-79
2023/08/24 03:08:08;;;;;;;11.07;10.20;;;;;;;21.42;79.21;156871.44;5032487;28;20572;-79
2023/08/24 03:10:38;;;;;;;10.00;9.00;;;;;;;21.35;79.42;156853.13;5037915;28;20451;-79
2023/08/24 03:13:04;;;;;;;9.90;9.10;;;;;;;21.37;78.89;156859.66;5032485;28;20554;-79
2023/08/24 03:15:31;;;;;;;10.33;9.03;;;;;;;21.42;78.90;156871.44;5051863;28;20970;-79
2023/08/24 03:17:58;;;;;;;10.23;9.10;;;;;;;21.46;78.33;156883.19;5032734;28;20962;-79
2023/08/24 03:20:25;;;;;;;9.50;8.60;;;;;;;21.44;78.16;156876.66;5059619;28;20476;-79
2023/08/24 03:22:51;;;;;;;9.90;9.10;;;;;;;21.40;78.52;156867.50;5016529;28;20502;-79
2023/08/24 03:25:18;;;;;;;10.27;9.30;;;;;;;21.40;77.88;156866.19;5066198;28;20509;-79
2023/08/24 03:27:46;;;;;;;9.70;8.80;;;;;;;21.48;77.49;156888.38;5050438;28;20485;-79
2023/08/24 03:30:13;;;;;;;9.20;8.40;;;;;;;21.41;77.92;156870.13;5025215;28;20868;-79
2023/08/24 03:32:40;;;;;;;9.90;8.90;;;;;;;21.38;78.28;156862.28;5052074;28;20567;-80
2023/08/24 03:35:08;;;;;;;9.37;8.53;;;;;;;21.33;78.26;156849.25;5000663;28;20443;-79
2023/08/24 03:37:34;;;;;;;8.97;8.17;;;;;;;21.32;78.93;156846.63;5037693;28;20830;-79
2023/08/24 03:40:02;;;;;;;10.23;9.23;;;;;;;21.33;78.76;156849.25;5020233;28;20443;-79
2023/08/24 03:42:29;;;;;;;10.43;9.43;;;;;;;21.41;77.93;156870.13;5014676;28;20482;-79
2023/08/24 03:44:57;;;;;;;10.17;9.27;;;;;;;21.41;77.95;156870.13;5070191;28;20556;-79
2023/08/24 03:47:23;;;;;;;9.40;8.47;;;;;;;21.38;78.15;156862.28;5053188;28;20463;-79
2023/08/24 03:49:50;;;;;;;10.00;9.10;;;;;;;21.34;78.11;156850.56;5069605;28;20534;-79
2023/08/24 03:52:16;;;;;;;9.13;8.37;;;;;;;21.25;78.99;156828.34;5019417;28;20485;-75
2023/08/24 03:54:43;;;;;;;11.13;9.57;;;;;;;21.20;79.21;156815.31;5035900;28;20914;-75
2023/08/24 03:57:10;;;;;;;10.33;9.43;;;;;;;21.20;79.72;156816.63;5045080;28;20458;-75
2023/08/24 03:59:36;;;;;;;10.17;9.30;;;;;;;21.17;80.03;156807.47;5028054;28;20946;-75
2023/08/24 04:02:04;;;;;;;10.60;9.70;;;;;;;21.10;80.48;156789.22;5021174;28;20498;-75
2023/08/24 04:04:31;;;;;;;9.93;9.13;;;;;;;21.00;81.39;156763.03;5029618;28;20484;-75
2023/08/24 04:07:02;;;;;;;10.03;9.20;;;;;;;21.02;81.17;156768.28;5010035;28;20463;-75
2023/08/24 04:09:29;;;;;;;14.53;10.10;;;;;;;21.06;81.04;156778.69;5007769;28;20966;-75
2023/08/24 04:11:55;;;;;;;9.93;9.03;;;;;;;21.16;80.39;156804.84;5047321;28;20490;-75
2023/08/24 04:14:22;;;;;;;15.00;11.60;;;;;;;21.13;80.80;156797.00;5029252;28;20458;-75
2023/08/24 04:16:49;;;;;;;11.63;10.70;;;;;;;21.11;81.22;156791.81;5020200;28;20558;-75
2023/08/24 04:19:16;;;;;;;11.57;10.47;;;;;;;21.09;81.22;156786.59;5011611;28;20463;-75
2023/08/24 04:21:43;;;;;;;11.60;10.33;;;;;;;21.04;81.35;156773.50;5044630;28;20558;-75
2023/08/24 04:24:09;;;;;;;12.07;10.80;;;;;;;21.06;81.07;156778.69;5035060;28;20449;-75
2023/08/24 04:26:36;;;;;;;11.50;10.40;;;;;;;21.07;81.50;156782.69;5015985;28;20926;-75
2023/08/24 04:29:03;;;;;;;11.30;10.20;;;;;;;21.08;81.30;156785.28;5041621;28;20528;-75
2023/08/24 04:31:29;;;;;;;12.37;11.17;;;;;;;21.10;81.06;156790.50;5023316;28;20455;-79
2023/08/24 04:33:56;;;;;;;11.80;10.63;;;;;;;21.11;80.42;156793.13;5024740;28;20485;-79
2023/08/24 04:36:24;;;;;;;11.63;10.53;;;;;;;21.09;80.86;156786.59;5053780;28;20453;-79
2023/08/24 04:38:53;;;;;;;12.00;11.00;;;;;;;21.08;80.69;156783.97;5026161;28;20891;-79
2023/08/24 04:41:23;;;;;;;11.53;10.53;;;;;;;21.04;80.72;156773.50;5028825;28;20795;-79
2023/08/24 04:43:50;;;;;;;12.63;11.43;;;;;;;20.97;81.79;156756.50;5058668;28;20451;-79
2023/08/24 04:46:16;;;;;;;12.27;11.30;;;;;;;20.91;82.23;156740.88;5064885;28;20451;-79
2023/08/24 04:48:45;;;;;;;12.67;11.57;;;;;;;20.79;82.56;156708.22;5049725;28;20535;-79
2023/08/24 04:51:14;;;;;;;12.10;11.10;;;;;;;20.61;83.80;156662.59;5041678;28;20468;-79
2023/08/24 04:53:42;;;;;;;13.10;12.00;;;;;;;20.52;84.80;156640.41;5036866;28;20512;-80
2023/08/24 04:56:09;;;;;;;12.93;11.83;;;;;;;20.47;84.98;156627.34;5061557;28;20459;-79
2023/08/24 04:58:35;;;;;;;12.50;11.30;;;;;;;20.46;85.40;156624.78;5048343;28;20459;-79
2023/08/24 05:01:02;;;;;;;11.70;10.70;;;;;;;20.48;85.21;156628.66;5050431;28;20460;-79
2023/08/24 05:03:29;;;;;;;12.00;11.00;;;;;;;20.52;84.85;156640.41;5021625;28;20470;-79
2023/08/24 05:05:55;;;;;;;12.43;11.10;;;;;;;20.54;84.52;156645.59;5052489;28;20457;-79
2023/08/24 05:08:22;;;;;;;11.50;10.50;;;;;;;20.54;84.49;156644.34;5055714;28;20889;-79
2023/08/24 05:10:50;;;;;;;15.23;10.93;;;;;;;20.59;83.67;156658.69;5065091;28;20984;-79
2023/08/24 05:13:20;;;;;;;12.13;10.40;;;;;;;20.60;83.13;156659.94;5052381;28;20812;-79
2023/08/24 05:15:48;;;;;;;11.43;10.47;;;;;;;20.63;82.86;156669.09;5055044;28;20474;-79
2023/08/24 05:18:14;;;;;;;11.83;10.80;;;;;;;20.65;82.91;156674.31;5067382;28;21060;-79
2023/08/24 05:20:41;;;;;;;11.67;10.57;;;;;;;20.62;82.74;156666.47;5054425;28;20458;-79
2023/08/24 05:23:07;;;;;;;11.43;10.33;;;;;;;20.60;82.50;156661.28;5051543;28;20461;-79
2023/08/24 05:25:35;;;;;;;12.13;11.07;;;;;;;20.59;82.59;156658.69;5071368;28;20455;-79
2023/08/24 05:28:03;;;;;;;11.43;10.33;;;;;;;20.59;83.15;156658.69;5051641;28;20462;-80
2023/08/24 05:30:29;;;;;;;11.13;10.07;;;;;;;20.59;83.32;156658.69;5055440;28;20803;-80
2023/08/24 05:32:56;;;;;;;12.10;10.80;;;;;;;20.67;82.98;156676.94;5018426;28;20463;-79
2023/08/24 05:35:23;;;;;;;11.40;10.40;;;;;;;20.66;83.19;156675.63;5055080;28;20923;-79
2023/08/24 05:37:50;;;;;;;11.93;10.77;;;;;;;20.72;82.90;156691.28;5050467;28;20454;-79
2023/08/24 05:40:16;;;;;;;11.80;10.80;;;;;;;20.80;82.00;156710.84;5068138;28;20474;-79
2023/08/24 05:42:43;;;;;;;13.43;12.13;;;;;;;20.85;82.18;156723.91;5003956;28;20458;-79
2023/08/24 05:45:12;;;;;;;10.87;9.80;;;;;;;20.82;82.03;156717.38;5070846;28;20449;-79
2023/08/24 05:47:38;;;;;;;11.20;10.20;;;;;;;20.79;82.20;156709.53;5018762;28;20451;-79
2023/08/24 05:50:06;;;;;;;10.73;9.83;;;;;;;20.81;81.64;156713.47;5038700;28;20482;-80
2023/08/24 05:52:32;;;;;;;10.50;9.60;;;;;;;20.85;81.35;156723.91;5078113;28;20489;-79
2023/08/24 05:54:59;;;;;;;12.47;11.13;;;;;;;20.87;81.74;156729.09;5073962;28;21053;-79
2023/08/24 05:57:25;;;;;;;11.00;10.10;;;;;;;20.87;81.73;156729.09;5062115;28;20457;-79
2023/08/24 05:59:52;;;;;;;11.30;10.23;;;;;;;20.89;81.53;156734.38;5075068;28;20459;-79
2023/08/24 06:02:20;;;;;;;13.97;10.50;;;;;;;21.00;80.88;156764.34;5011108;28;20541;-79
2023/08/24 06:04:47;;;;;;;10.40;9.50;;;;;;;21.05;80.75;156776.06;5057027;28;20804;-79
2023/08/24 06:07:13;;;;;;;11.37;10.37;;;;;;;21.13;80.46;156797.00;5077622;28;20462;-79
2023/08/24 06:09:40;;;;;;;10.27;9.33;;;;;;;21.17;80.29;156807.47;5071329;28;20477;-79
2023/08/24 06:12:08;;;;;;;11.17;10.17;;;;;;;21.17;80.27;156807.47;5062760;28;20460;-79
2023/08/24 06:14:34;;;;;;;10.57;9.60;;;;;;;21.21;80.38;156819.22;5024279;28;20450;-80
2023/08/24 06:17:01;;;;;;;11.07;10.17;;;;;;;21.30;80.24;156841.41;5060242;28;20453;-79
2023/08/24 06:19:29;;;;;;;10.63;9.63;;;;;;;21.44;79.38;156876.66;5077047;28;20845;-79
2023/08/24 06:21:55;;;;;;;11.63;10.60;;;;;;;21.52;79.39;156897.53;5074214;28;20456;-79
2023/08/24 06:24:22;;;;;;;11.20;9.70;;;;;;;21.52;78.84;156897.53;5075953;28;20462;-79
2023/08/24 06:26:49;;;;;;;10.83;9.90;;;;;;;21.56;79.37;156909.28;5057637;28;20458;-79
2023/08/24 06:29:15;;;;;;;10.43;9.47;;;;;;;21.60;78.98;156919.75;5061880;28;20482;-79
2023/08/24 06:31:42;;;;;;;12.00;10.80;;;;;;;21.67;78.86;156938.00;5023678;28;20895;-79
2023/08/24 06:34:08;;;;;;;11.00;9.90;;;;;;;21.72;78.21;156951.06;5057370;28;20528;-79
2023/08/24 06:36:36;;;;;;;11.17;10.20;;;;;;;21.78;78.60;156966.75;5072967;28;20450;-79
2023/08/24 06:39:04;;;;;;;11.27;10.17;;;;;;;21.81;78.65;156974.56;5042771;28;20552;-80
2023/08/24 06:41:35;;;;;;;10.60;9.70;;;;;;;21.85;78.37;156983.69;5070271;28;20498;-80
2023/08/24 06:44:07;;;;;;;10.67;9.73;;;;;;;21.89;78.72;156994.19;5040241;28;20830;-80
2023/08/24 06:46:34;;;;;;;10.47;9.50;;;;;;;21.94;78.11;157005.94;5061544;28;20806;-79
2023/08/24 06:49:00;;;;;;;10.43;9.50;;;;;;;21.96;78.10;157012.47;5039987;28;20566;-79
2023/08/24 06:51:27;;;;;;;11.57;10.00;;;;;;;21.99;77.87;157019.00;5074222;28;20460;-80
2023/08/24 06:53:55;;;;;;;11.17;10.27;;;;;;;22.02;77.51;157026.84;5055268;28;20517;-80
2023/08/24 06:56:22;;;;;;;11.37;10.03;;;;;;;22.01;77.79;157025.53;5060258;28;20481;-79
2023/08/24 06:58:48;;;;;;;10.13;9.23;;;;;;;22.01;78.27;157025.53;5058873;28;20584;-79
2023/08/24 07:01:15;;;;;;;12.13;10.77;;;;;;;22.03;78.24;157029.47;5057114;28;20532;-79
2023/08/24 07:03:42;;;;;;;11.13;10.10;;;;;;;22.04;78.18;157032.03;5017306;28;21042;-79
2023/08/24 07:06:11;;;;;;;10.30;9.40;;;;;;;22.13;78.04;157055.56;5072692;28;20446;-79
2023/08/24 07:08:38;;;;;;;9.83;8.83;;;;;;;22.19;76.97;157071.22;5067261;28;20509;-79
2023/08/24 07:11:06;;;;;;;10.50;9.50;;;;;;;22.20;77.64;157073.84;5054887;28;20452;-80
2023/08/24 07:13:34;;;;;;;11.73;9.23;;;;;;;22.23;77.46;157083.00;5072694;28;21013;-79
2023/08/24 07:16:01;;;;;;;10.10;9.20;;;;;;;22.40;76.76;157126.06;5069780;28;20443;-79
2023/08/24 07:18:28;;;;;;;11.03;9.97;;;;;;;22.41;76.82;157128.69;5071762;28;20818;-80
2023/08/24 07:20:55;;;;;;;9.97;9.17;;;;;;;22.58;77.94;157171.81;5070797;28;20462;-80
2023/08/24 07:23:22;;;;;;;10.20;9.20;;;;;;;22.86;77.09;157246.31;5073993;28;20454;-80
2023/08/24 07:25:49;;;;;;;10.80;9.70;;;;;;;22.99;76.83;157280.28;5055664;28;20465;-79
2023/08/24 07:28:17;;;;;;;9.67;8.87;;;;;;;23.06;76.10;157296.00;5073151;28;20454;-80
2023/08/24 07:30:43;;;;;;;10.63;8.87;;;;;;;23.12;76.44;157312.94;5050373;28;21050;-80
2023/08/24 07:33:10;;;;;;;11.17;10.17;;;;;;;23.16;75.84;157323.44;5056584;28;20446;-80
2023/08/24 07:35:37;;;;;;;10.43;9.53;;;;;;;23.25;75.66;157346.94;5069356;28;20474;-80
2023/08/24 07:38:04;;;;;;;11.40;10.30;;;;;;;23.24;74.93;157344.34;5072289;28;20451;-79
2023/08/24 07:40:31;;;;;;;11.43;10.30;;;;;;;23.27;75.58;157350.88;5068563;28;20448;-80
2023/08/24 07:42:57;;;;;;;11.50;10.57;;;;;;;23.24;75.91;157344.34;5019047;28;20463;-79
2023/08/24 07:45:26;;;;;;;12.10;10.93;;;;;;;23.36;76.51;157374.38;5055715;28;20463;-80
2023/08/24 07:47:53;;;;;;;11.93;10.90;;;;;;;23.60;75.38;157437.16;5054515;28;20458;-80
2023/08/24 07:50:20;;;;;;;11.80;10.30;;;;;;;23.89;74.98;157513.00;5068062;28;20853;-80
2023/08/24 07:52:46;;;;;;;12.10;11.03;;;;;;;24.21;74.32;157596.75;5067778;28;20978;-80
2023/08/24 07:55:13;;;;;;;14.67;13.10;;;;;;;24.59;72.70;157693.53;5039006;28;20466;-80
2023/08/24 07:57:39;;;;;;;12.87;11.67;;;;;;;24.84;70.62;157758.97;5069209;28;20460;-80
2023/08/24 08:00:09;;;;;;;11.33;10.33;;;;;;;24.97;70.45;157793.00;5038923;28;20446;-80
2023/08/24 08:02:42;;;;;;;13.47;12.07;;;;;;;25.29;69.38;157876.75;5054945;28;20442;-80
2023/08/24 08:05:10;;;;;;;11.07;9.97;;;;;;;25.51;67.93;157931.75;5021649;28;20451;-80
2023/08/24 08:07:37;;;;;;;11.10;10.17;;;;;;;25.65;66.60;157969.75;5068656;28;21323;-80
2023/08/24 08:10:05;;;;;;;11.50;10.43;;;;;;;25.75;65.89;157994.59;5033977;28;20465;-80
2023/08/24 08:12:32;;;;;;;10.30;9.43;;;;;;;25.90;65.79;158035.19;5070528;28;20492;-80
2023/08/24 08:14:59;;;;;;;12.03;10.93;;;;;;;25.86;64.84;158023.41;5037194;28;20453;-80
2023/08/24 08:17:26;;;;;;;12.83;10.00;;;;;;;25.79;64.25;158006.38;5056105;28;20476;-80
2023/08/24 08:19:56;;;;;;;9.80;8.90;;;;;;;25.59;64.54;157954.03;5052940;28;20954;-80
2023/08/24 08:22:23;;;;;;;11.10;10.20;;;;;;;25.60;66.14;157955.34;5049255;28;20454;-80
2023/08/24 08:24:50;;;;;;;10.80;9.73;;;;;;;25.80;65.71;158007.69;5054758;28;20603;-80
2023/08/24 08:27:20;;;;;;;10.60;9.60;;;;;;;26.09;64.88;158083.63;5031626;28;20891;-80
2023/08/24 08:29:46;;;;;;;11.93;9.93;;;;;;;26.35;64.22;158151.75;5051797;28;20485;-80
2023/08/24 08:32:13;;;;;;;10.47;9.47;;;;;;;26.56;62.72;158205.44;5071898;28;20453;-80
2023/08/24 08:34:39;;;;;;;9.90;9.00;;;;;;;26.74;62.60;158252.59;5067655;28;20454;-80
2023/08/24 08:37:07;;;;;;;10.00;9.10;;;;;;;26.91;60.80;158295.88;5043846;28;20453;-80
2023/08/24 08:39:34;;;;;;;9.37;8.37;;;;;;;27.08;59.96;158341.75;5047214;28;20464;-79
2023/08/24 08:42:01;;;;;;;11.50;8.90;;;;;;;27.30;58.99;158398.06;5052418;28;20437;-79
2023/08/24 08:44:32;;;;;;;9.60;8.70;;;;;;;27.52;59.17;158455.78;5064016;28;20970;-80
2023/08/24 08:46:58;;;;;;;10.30;8.60;;;;;;;27.61;57.58;158478.09;5051480;28;20462;-80
2023/08/24 08:49:25;;;;;;;10.47;9.47;;;;;;;27.66;58.76;158492.50;5038567;28;20478;-79
2023/08/24 08:51:52;;;;;;;9.20;8.30;;;;;;;27.75;57.84;158516.06;5052270;28;20442;-80
2023/08/24 08:54:20;;;;;;;9.17;8.40;;;;;;;27.93;56.31;158560.66;5067635;28;20473;-80
2023/08/24 08:56:46;;;;;;;9.57;8.77;;;;;;;27.87;56.61;158546.25;5022188;28;20536;-80
2023/08/24 08:59:15;;;;;;;9.53;8.63;;;;;;;27.69;57.26;158500.31;5050031;28;20458;-79
2023/08/24 09:01:43;;;;;;;10.83;9.00;;;;;;;27.74;57.03;158513.47;5053163;28;20454;-80
2023/08/24 09:04:11;;;;;;;9.00;8.20;;;;;;;27.66;57.84;158492.50;5068469;28;20527;-80
2023/08/24 09:06:37;;;;;;;10.17;9.37;;;;;;;27.43;57.19;158430.91;5054131;28;20465;-79
2023/08/24 09:09:05;;;;;;;11.73;9.43;;;;;;;27.28;58.13;158392.84;5054964;28;20465;-79
2023/08/24 09:11:34;;;;;;;9.60;8.70;;;;;;;27.33;58.44;158405.94;5066444;28;20903;-80
2023/08/24 09:14:00;;;;;;;9.10;8.40;;;;;;;27.41;57.21;158426.94;5070142;28;20454;-80
2023/08/24 09:16:30;;;;;;;9.53;8.67;;;;;;;27.48;57.99;158445.28;5037318;28;20457;-80
2023/08/24 09:18:56;;;;;;;9.70;8.80;;;;;;;27.38;57.80;158419.03;5032322;28;21002;-80
2023/08/24 09:21:24;;;;;;;9.50;8.30;;;;;;;27.35;58.43;158411.16;5019705;28;20455;-80
2023/08/24 09:23:53;;;;;;;9.43;8.50;;;;;;;27.48;58.40;158445.28;5054429;28;20954;-80
2023/08/24 09:26:28;;;;;;;9.70;8.70;;;;;;;27.60;58.61;158476.75;5054962;28;20449;-80
2023/08/24 09:28:56;;;;;;;10.47;9.47;;;;;;;27.65;57.54;158489.88;5053141;28;20465;-80
2023/08/24 09:31:23;;;;;;;10.17;9.13;;;;;;;27.63;57.62;158484.63;5051276;28;20471;-80
2023/08/24 09:33:49;;;;;;;9.70;8.70;;;;;;;27.45;57.52;158436.16;5065894;28;20462;-80
2023/08/24 09:36:16;;;;;;;10.27;8.53;;;;;;;27.48;58.40;158445.28;5069961;28;20908;-80
2023/08/24 09:38:47;;;;;;;10.00;9.20;;;;;;;27.50;58.07;158450.56;5062770;28;20461;-80
2023/08/24 09:41:14;;;;;;;10.33;9.43;;;;;;;27.43;58.63;158432.19;5038617;28;20471;-80
2023/08/24 09:43:41;;;;;;;10.00;9.10;;;;;;;27.50;58.33;158449.25;5019694;28;20861;-80
2023/08/24 09:46:09;;;;;;;10.73;8.27;;;;;;;27.37;58.42;158416.44;5053028;28;20443;-80
2023/08/24 09:48:35;;;;;;;10.00;9.20;;;;;;;27.46;58.75;158440.06;5031482;28;20849;-80
2023/08/24 09:51:05;;;;;;;9.97;9.17;;;;;;;27.50;58.05;158450.56;5053670;28;20478;-80
2023/08/24 09:53:34;;;;;;;9.63;8.93;;;;;;;27.58;58.41;158470.22;5038687;28;20921;-80
2023/08/24 09:56:02;;;;;;;13.90;8.60;;;;;;;27.53;59.22;158458.44;5052973;28;20458;-80
2023/08/24 09:58:30;;;;;;;10.03;9.03;;;;;;;27.73;59.18;158509.53;5069987;28;20804;-80
2023/08/24 10:00:58;;;;;;;9.27;8.47;;;;;;;28.01;58.19;158581.63;5018786;28;20475;-79
2023/08/24 10:03:27;;;;;;;10.60;9.60;;;;;;;27.98;57.94;158575.09;5057179;28;20442;-79
2023/08/24 10:05:54;;;;;;;10.23;9.30;;;;;;;27.98;58.43;158575.09;5046130;28;20448;-80
2023/08/24 10:08:23;;;;;;;9.23;8.53;;;;;;;28.14;57.72;158615.78;5020710;28;20438;-80
2023/08/24 10:11:00;;;;;;;9.60;8.80;;;;;;;28.22;57.56;158636.75;5054813;28;20531;-80
2023/08/24 10:13:37;;;;;;;10.27;9.07;;;;;;;28.25;58.04;158644.63;5067344;28;20813;-80
2023/08/24 10:16:06;;;;;;;10.03;9.13;;;;;;;28.32;57.79;158664.28;5065357;28;20585;-80
2023/08/24 10:18:34;;;;;;;10.20;9.20;;;;;;;28.34;57.42;158668.19;5068973;28;20489;-80
2023/08/24 10:21:01;;;;;;;10.67;9.57;;;;;;;28.46;57.71;158699.69;5072099;28;20469;-80
2023/08/24 10:23:29;;;;;;;9.67;8.87;;;;;;;28.48;58.26;158704.94;5030440;28;21108;-79
2023/08/24 10:25:56;;;;;;;10.57;9.77;;;;;;;28.60;58.79;158736.38;5053882;28;20486;-79
2023/08/24 10:28:24;;;;;;;10.50;9.70;;;;;;;28.71;58.06;158765.28;5069894;28;20454;-80
2023/08/24 10:30:52;;;;;;;10.97;9.20;;;;;;;28.75;57.88;158775.75;5071245;28;20477;-79
2023/08/24 10:33:19;;;;;;;11.17;10.27;;;;;;;28.74;57.84;158773.16;5051169;28;20466;-79
2023/08/24 10:35:48;;;;;;;10.53;9.53;;;;;;;28.70;58.94;158762.66;5039141;28;20462;-79
2023/08/24 10:38:26;;;;;;;10.83;9.93;;;;;;;28.91;58.48;158816.47;5022920;28;20827;-79
2023/08/24 10:40:53;;;;;;;10.70;9.80;;;;;;;29.01;58.72;158842.69;5070321;28;21025;-80
2023/08/24 10:43:20;;;;;;;11.80;10.63;;;;;;;29.06;58.33;158855.81;5068787;28;20477;-80
2023/08/24 10:45:59;;;;;;;11.50;10.40;;;;;;;29.14;58.93;158876.78;5038321;28;20576;-79
2023/08/24 10:48:28;;;;;;;10.60;9.60;;;;;;;29.16;58.86;158882.03;5039314;28;20452;-79
2023/08/24 10:51:22;;;;;;;11.73;10.53;;;;;;;29.05;59.62;158851.84;5067902;28;20478;-86
2023/08/24 10:53:53;;;;;;;11.57;10.67;;;;;;;29.02;59.64;158844.00;5053032;28;20496;-86
2023/08/24 10:56:20;;;;;;;11.10;10.10;;;;;;;29.22;60.05;158896.50;5067541;28;20453;-86
2023/08/24 10:58:48;;;;;;;10.77;9.97;;;;;;;29.44;58.92;158954.25;5032606;28;20549;-86
2023/08/24 11:01:18;;;;;;;13.27;10.97;;;;;;;29.47;58.71;158962.09;5065977;28;20451;-87
2023/08/24 11:03:50;;;;;;;11.77;10.70;;;;;;;29.55;59.06;158983.09;5074429;28;20559;-87
2023/08/24 11:06:21;;;;;;;12.00;10.90;;;;;;;29.58;59.23;158992.28;5051211;28;20426;-86
2023/08/24 11:08:48;;;;;;;11.47;10.30;;;;;;;29.76;58.59;159038.19;5016645;28;20459;-86
2023/08/24 11:11:21;;;;;;;11.47;10.10;;;;;;;29.92;58.37;159080.25;5056413;28;20482;-86
2023/08/24 11:14:16;;;;;;;11.30;10.40;;;;;;;29.95;58.81;159088.13;5064693;28;20460;-86
2023/08/24 11:16:43;;;;;;;10.90;10.00;;;;;;;29.96;57.80;159090.78;5024197;28;20502;-86
2023/08/24 11:19:11;;;;;;;12.40;11.40;;;;;;;29.87;57.99;159067.13;5060423;28;20487;-86